sensor_id;sensor_type;location;lat;lon;timestamp;pressure;altitude;pressure_sealevel;temperature;humidity
34482;BME280;20720;48.886;9.388;2023-05-21T00:00:09;97990.81;;;20.14;100.00
34482;BME280;20720;48.886;9.388;2023-05-21T00:02:36;97994.28;;;19.49;100.00
34482;BME280;20720;48.886;9.388;2023-05-21T00:05:01;97988.97;;;19.89;100.00
34482;BME280;20720;48.886;9.388;2023-05-21T00:07:27;97994.03;;;19.81;100.00
34482;BME280;20720;48.886;9.388;2023-05-21T00:09:52;97986.56;;;19.62;100.00
34482;BME280;20720;48.886;9.388;2023-05-21T00:12:18;97976.44;;;19.90;100.00
34482;BME280;20720;48.886;9.388;2023-05-21T00:14:43;97984.72;;;19.98;100.00
34482;BME280;20720;48.886;9.388;2023-05-21T00:17:08;97973.75;;;19.80;100.00
34482;BME280;20720;48.886;9.388;2023-05-21T00:19:33;97972.94;;;20.04;100.00
34482;BME280;20720;48.886;9.388;2023-05-21T00:21:59;97971.63;;;20.02;100.00
34482;BME280;20720;48.886;9.388;2023-05-21T00:24:28;97972.97;;;19.74;100.00
34482;BME280;20720;48.886;9.388;2023-05-21T00:26:53;97966.81;;;19.84;100.00
34482;BME280;20720;48.886;9.388;2023-05-21T00:29:18;97963.91;;;19.70;100.00
34482;BME280;20720;48.886;9.388;2023-05-21T00:31:44;97966.28;;;19.46;100.00
34482;BME280;20720;48.886;9.388;2023-05-21T00:34:09;97955.63;;;19.46;100.00
34482;BME280;20720;48.886;9.388;2023-05-21T00:36:36;97959.88;;;19.37;100.00
34482;BME280;20720;48.886;9.388;2023-05-21T00:39:04;97947.66;;;19.56;100.00
34482;BME280;20720;48.886;9.388;2023-05-21T00:41:29;97944.97;;;19.72;100.00
34482;BME280;20720;48.886;9.388;2023-05-21T00:43:55;97943.38;;;19.81;100.00
34482;BME280;20720;48.886;9.388;2023-05-21T00:46:21;97947.13;;;19.85;100.00
34482;BME280;20720;48.886;9.388;2023-05-21T00:48:47;97942.31;;;19.61;100.00
34482;BME280;20720;48.886;9.388;2023-05-21T00:51:13;97948.19;;;19.89;100.00
34482;BME280;20720;48.886;9.388;2023-05-21T00:53:39;97951.38;;;19.96;100.00
34482;BME280;20720;48.886;9.388;2023-05-21T00:56:05;97939.13;;;19.95;100.00
34482;BME280;20720;48.886;9.388;2023-05-21T00:58:31;97929.56;;;18.20;100.00
34482;BME280;20720;48.886;9.388;2023-05-21T01:00:58;97928.91;;;19.11;100.00
34482;BME280;20720;48.886;9.388;2023-05-21T01:03:28;97938.31;;;19.64;100.00
34482;BME280;20720;48.886;9.388;2023-05-21T01:05:54;97931.09;;;19.75;100.00
34482;BME280;20720;48.886;9.388;2023-05-21T01:08:24;97928.16;;;19.76;100.00
34482;BME280;20720;48.886;9.388;2023-05-21T01:10:51;97941.25;;;19.78;100.00
34482;BME280;20720;48.886;9.388;2023-05-21T01:13:18;97932.19;;;19.79;100.00
34482;BME280;20720;48.886;9.388;2023-05-21T01:15:48;97932.72;;;19.76;100.00
34482;BME280;20720;48.886;9.388;2023-05-21T01:18:20;97942.28;;;19.51;100.00
34482;BME280;20720;48.886;9.388;2023-05-21T01:20:45;97929.94;;;19.10;100.00
34482;BME280;20720;48.886;9.388;2023-05-21T01:23:15;97928.88;;;19.06;100.00
34482;BME280;20720;48.886;9.388;2023-05-21T01:25:41;97926.94;;;18.82;100.00
34482;BME280;20720;48.886;9.388;2023-05-21T01:28:06;97932.84;;;18.99;100.00
34482;BME280;20720;48.886;9.388;2023-05-21T01:30:32;97934.25;;;19.26;100.00
34482;BME280;20720;48.886;9.388;2023-05-21T01:33:12;97933.25;;;19.52;100.00
34482;BME280;20720;48.886;9.388;2023-05-21T01:35:43;97930.03;;;19.55;100.00
34482;BME280;20720;48.886;9.388;2023-05-21T01:38:19;97942.25;;;19.26;100.00
34482;BME280;20720;48.886;9.388;2023-05-21T01:40:52;97929.31;;;18.73;100.00
34482;BME280;20720;48.886;9.388;2023-05-21T01:43:19;97916.72;;;18.53;100.00
34482;BME280;20720;48.886;9.388;2023-05-21T01:45:48;97923.09;;;18.52;100.00
34482;BME280;20720;48.886;9.388;2023-05-21T01:48:18;97916.09;;;18.98;100.00
34482;BME280;20720;48.886;9.388;2023-05-21T01:50:44;97928.31;;;19.04;100.00
34482;BME280;20720;48.886;9.388;2023-05-21T01:53:10;97915.38;;;18.51;100.00
34482;BME280;20720;48.886;9.388;2023-05-21T01:55:35;97921.91;;;18.90;100.00
34482;BME280;20720;48.886;9.388;2023-05-21T01:58:03;97917.69;;;19.04;100.00
34482;BME280;20720;48.886;9.388;2023-05-21T02:00:29;97922.25;;;19.19;100.00
34482;BME280;20720;48.886;9.388;2023-05-21T02:02:56;97920.13;;;19.31;100.00
34482;BME280;20720;48.886;9.388;2023-05-21T02:05:22;97914.03;;;19.35;100.00
34482;BME280;20720;48.886;9.388;2023-05-21T02:07:49;97921.44;;;19.18;100.00
34482;BME280;20720;48.886;9.388;2023-05-21T02:10:16;97918.34;;;18.59;100.00
34482;BME280;20720;48.886;9.388;2023-05-21T02:12:41;97914.50;;;19.07;100.00
34482;BME280;20720;48.886;9.388;2023-05-21T02:15:07;97918.25;;;19.16;100.00
34482;BME280;20720;48.886;9.388;2023-05-21T02:17:33;97915.94;;;18.58;100.00
34482;BME280;20720;48.886;9.388;2023-05-21T02:20:02;97901.16;;;17.88;100.00
34482;BME280;20720;48.886;9.388;2023-05-21T02:22:40;97907.91;;;18.53;100.00
34482;BME280;20720;48.886;9.388;2023-05-21T02:25:07;97913.91;;;18.85;100.00
34482;BME280;20720;48.886;9.388;2023-05-21T02:27:33;97910.19;;;17.88;100.00
34482;BME280;20720;48.886;9.388;2023-05-21T02:30:01;97904.59;;;18.26;100.00
34482;BME280;20720;48.886;9.388;2023-05-21T02:32:28;97901.25;;;18.45;100.00
34482;BME280;20720;48.886;9.388;2023-05-21T02:34:53;97906.44;;;18.77;100.00
34482;BME280;20720;48.886;9.388;2023-05-21T02:37:19;97895.94;;;18.04;100.00
34482;BME280;20720;48.886;9.388;2023-05-21T02:39:44;97894.66;;;18.58;100.00
34482;BME280;20720;48.886;9.388;2023-05-21T02:42:09;97898.19;;;18.73;100.00
34482;BME280;20720;48.886;9.388;2023-05-21T02:44:35;97903.50;;;18.73;100.00
34482;BME280;20720;48.886;9.388;2023-05-21T02:47:00;97905.63;;;18.76;100.00
34482;BME280;20720;48.886;9.388;2023-05-21T02:49:25;97906.69;;;18.75;100.00
34482;BME280;20720;48.886;9.388;2023-05-21T02:51:51;97904.28;;;18.74;100.00
34482;BME280;20720;48.886;9.388;2023-05-21T02:54:16;97901.88;;;18.72;100.00
34482;BME280;20720;48.886;9.388;2023-05-21T02:56:41;97898.41;;;18.62;100.00
34482;BME280;20720;48.886;9.388;2023-05-21T02:59:07;97898.91;;;17.70;100.00
34482;BME280;20720;48.886;9.388;2023-05-21T03:01:32;97881.53;;;17.95;100.00
34482;BME280;20720;48.886;9.388;2023-05-21T03:03:57;97898.56;;;18.45;100.00
34482;BME280;20720;48.886;9.388;2023-05-21T03:06:22;97894.66;;;18.58;100.00
34482;BME280;20720;48.886;9.388;2023-05-21T03:08:48;97903.19;;;18.60;100.00
34482;BME280;20720;48.886;9.388;2023-05-21T03:11:13;97896.81;;;18.19;100.00
34482;BME280;20720;48.886;9.388;2023-05-21T03:13:38;97895.19;;;18.13;100.00
34482;BME280;20720;48.886;9.388;2023-05-21T03:16:04;97893.88;;;18.11;100.00
34482;BME280;20720;48.886;9.388;2023-05-21T03:18:30;97892.22;;;18.00;100.00
34482;BME280;20720;48.886;9.388;2023-05-21T03:20:55;97876.19;;;17.53;100.00
34482;BME280;20720;48.886;9.388;2023-05-21T03:23:23;97892.22;;;18.00;100.00
34482;BME280;20720;48.886;9.388;2023-05-21T03:25:48;97898.94;;;18.12;100.00
34482;BME280;20720;48.886;9.388;2023-05-21T03:28:15;97893.34;;;18.14;100.00
34482;BME280;20720;48.886;9.388;2023-05-21T03:30:41;97897.09;;;18.23;100.00
34482;BME280;20720;48.886;9.388;2023-05-21T03:33:10;97893.16;;;18.30;100.00
34482;BME280;20720;48.886;9.388;2023-05-21T03:35:35;97890.03;;;17.55;100.00
34482;BME280;20720;48.886;9.388;2023-05-21T03:38:01;97883.16;;;17.32;100.00
34482;BME280;20720;48.886;9.388;2023-05-21T03:40:26;97880.22;;;17.92;100.00
34482;BME280;20720;48.886;9.388;2023-05-21T03:42:51;97882.63;;;18.04;100.00
34482;BME280;20720;48.886;9.388;2023-05-21T03:45:16;97883.78;;;18.13;100.00
34482;BME280;20720;48.886;9.388;2023-05-21T03:47:42;97890.97;;;17.75;100.00
34482;BME280;20720;48.886;9.388;2023-05-21T03:50:07;97881.94;;;16.86;100.00
34482;BME280;20720;48.886;9.388;2023-05-21T03:52:33;97884.63;;;17.76;100.00
34482;BME280;20720;48.886;9.388;2023-05-21T03:54:58;97890.59;;;17.99;100.00
34482;BME280;20720;48.886;9.388;2023-05-21T03:57:23;97886.91;;;18.00;100.00
34482;BME280;20720;48.886;9.388;2023-05-21T03:59:49;97891.69;;;18.03;100.00
34482;BME280;20720;48.886;9.388;2023-05-21T04:02:14;97897.75;;;17.93;100.00
34482;BME280;20720;48.886;9.388;2023-05-21T04:04:40;97892.31;;;17.73;100.00
34482;BME280;20720;48.886;9.388;2023-05-21T04:07:05;97895.63;;;17.95;100.00
34482;BME280;20720;48.886;9.388;2023-05-21T04:09:39;97897.47;;;17.90;100.00
34482;BME280;20720;48.886;9.388;2023-05-21T04:12:04;97903.63;;;18.00;100.00
34482;BME280;20720;48.886;9.388;2023-05-21T04:14:29;97904.22;;;18.07;100.00
34482;BME280;20720;48.886;9.388;2023-05-21T04:16:55;97911.75;;;17.83;100.00
34482;BME280;20720;48.886;9.388;2023-05-21T04:19:20;97906.34;;;18.05;100.00
34482;BME280;20720;48.886;9.388;2023-05-21T04:21:46;97911.28;;;17.92;100.00
34482;BME280;20720;48.886;9.388;2023-05-21T04:24:11;97914.06;;;18.12;100.00
34482;BME280;20720;48.886;9.388;2023-05-21T04:26:36;97911.94;;;18.09;100.00
34482;BME280;20720;48.886;9.388;2023-05-21T04:29:02;97915.28;;;17.94;100.00
34482;BME280;20720;48.886;9.388;2023-05-21T04:31:29;97925.81;;;18.21;100.00
34482;BME280;20720;48.886;9.388;2023-05-21T04:33:55;97926.88;;;18.20;100.00
34482;BME280;20720;48.886;9.388;2023-05-21T04:36:21;97926.66;;;18.26;100.00
34482;BME280;20720;48.886;9.388;2023-05-21T04:38:46;97928.81;;;17.88;100.00
34482;BME280;20720;48.886;9.388;2023-05-21T04:41:12;97917.00;;;17.15;100.00
34482;BME280;20720;48.886;9.388;2023-05-21T04:43:38;97927.16;;;18.18;100.00
34482;BME280;20720;48.886;9.388;2023-05-21T04:46:08;97929.09;;;18.33;100.00
34482;BME280;20720;48.886;9.388;2023-05-21T04:48:33;97933.50;;;18.17;100.00
34482;BME280;20720;48.886;9.388;2023-05-21T04:50:58;97923.66;;;18.59;100.00
34482;BME280;20720;48.886;9.388;2023-05-21T04:53:23;97933.50;;;18.59;100.00
34482;BME280;20720;48.886;9.388;2023-05-21T04:55:50;97935.13;;;18.18;100.00
34482;BME280;20720;48.886;9.388;2023-05-21T04:58:15;97929.25;;;18.58;100.00
34482;BME280;20720;48.886;9.388;2023-05-21T05:00:42;97933.00;;;18.72;100.00
34482;BME280;20720;48.886;9.388;2023-05-21T05:03:10;97932.53;;;18.85;100.00
34482;BME280;20720;48.886;9.388;2023-05-21T05:05:35;97931.16;;;18.67;100.00
34482;BME280;20720;48.886;9.388;2023-05-21T05:08:00;97935.22;;;18.95;100.00
34482;BME280;20720;48.886;9.388;2023-05-21T05:10:26;97936.88;;;19.11;100.00
34482;BME280;20720;48.886;9.388;2023-05-21T05:12:51;97929.84;;;18.80;100.00
34482;BME280;20720;48.886;9.388;2023-05-21T05:15:17;97932.88;;;19.14;100.00
34482;BME280;20720;48.886;9.388;2023-05-21T05:17:42;97939.59;;;19.36;100.00
34482;BME280;20720;48.886;9.388;2023-05-21T05:20:09;97937.50;;;18.61;100.00
34482;BME280;20720;48.886;9.388;2023-05-21T05:22:34;97942.22;;;19.21;100.00
34482;BME280;20720;48.886;9.388;2023-05-21T05:25:00;97935.66;;;19.64;100.00
34482;BME280;20720;48.886;9.388;2023-05-21T05:27:25;97939.09;;;19.90;100.00
34482;BME280;20720;48.886;9.388;2023-05-21T05:29:50;97948.72;;;19.81;100.00
34482;BME280;20720;48.886;9.388;2023-05-21T05:32:16;97945.25;;;19.90;100.00
34482;BME280;20720;48.886;9.388;2023-05-21T05:34:43;97943.88;;;20.18;100.00
34482;BME280;20720;48.886;9.388;2023-05-21T05:37:09;97946.56;;;20.08;100.00
34482;BME280;20720;48.886;9.388;2023-05-21T05:39:34;97939.09;;;19.90;100.00
34482;BME280;20720;48.886;9.388;2023-05-21T05:41:59;97938.53;;;20.33;100.00
34482;BME280;20720;48.886;9.388;2023-05-21T05:44:25;97939.47;;;20.67;100.00
34482;BME280;20720;48.886;9.388;2023-05-21T05:46:50;97936.63;;;20.48;100.00
34482;BME280;20720;48.886;9.388;2023-05-21T05:49:16;97939.94;;;20.84;100.00
34482;BME280;20720;48.886;9.388;2023-05-21T05:51:41;97943.00;;;20.52;100.00
34482;BME280;20720;48.886;9.388;2023-05-21T05:54:06;97946.31;;;20.98;100.00
34482;BME280;20720;48.886;9.388;2023-05-21T05:56:32;97944.44;;;20.99;100.00
34482;BME280;20720;48.886;9.388;2023-05-21T05:58:58;97942.41;;;21.29;100.00
34482;BME280;20720;48.886;9.388;2023-05-21T06:01:23;97942.34;;;21.39;100.00
34482;BME280;20720;48.886;9.388;2023-05-21T06:03:50;97951.81;;;20.53;100.00
34482;BME280;20720;48.886;9.388;2023-05-21T06:06:15;97943.59;;;21.13;100.00
34482;BME280;20720;48.886;9.388;2023-05-21T06:08:41;97948.03;;;21.67;100.00
34482;BME280;20720;48.886;9.388;2023-05-21T06:11:07;97945.22;;;21.87;100.00
34482;BME280;20720;48.886;9.388;2023-05-21T06:13:33;97944.22;;;21.73;100.00
34482;BME280;20720;48.886;9.388;2023-05-21T06:15:58;97948.19;;;22.14;100.00
34482;BME280;20720;48.886;9.388;2023-05-21T06:18:23;97949.31;;;22.08;100.00
34482;BME280;20720;48.886;9.388;2023-05-21T06:20:48;97952.00;;;21.69;100.00
34482;BME280;20720;48.886;9.388;2023-05-21T06:23:14;97949.78;;;21.04;100.00
34482;BME280;20720;48.886;9.388;2023-05-21T06:25:39;97948.41;;;20.17;100.00
34482;BME280;20720;48.886;9.388;2023-05-21T06:28:05;97943.69;;;20.83;100.00
34482;BME280;20720;48.886;9.388;2023-05-21T06:30:30;97948.97;;;20.93;100.00
34482;BME280;20720;48.886;9.388;2023-05-21T06:32:55;97946.28;;;21.03;100.00
34482;BME280;20720;48.886;9.388;2023-05-21T06:35:21;97945.00;;;22.64;100.00
34482;BME280;20720;48.886;9.388;2023-05-21T06:37:47;97941.81;;;23.04;100.00
34482;BME280;20720;48.886;9.388;2023-05-21T06:40:12;97951.00;;;23.91;97.71
34482;BME280;20720;48.886;9.388;2023-05-21T06:42:38;97965.66;;;24.45;90.64
34482;BME280;20720;48.886;9.388;2023-05-21T06:45:04;97959.28;;;25.22;87.83
34482;BME280;20720;48.886;9.388;2023-05-21T06:47:29;97960.03;;;25.94;81.71
34482;BME280;20720;48.886;9.388;2023-05-21T06:49:55;97958.56;;;25.66;80.36
34482;BME280;20720;48.886;9.388;2023-05-21T06:52:20;97965.41;;;25.50;78.43
34482;BME280;20720;48.886;9.388;2023-05-21T06:54:45;97974.28;;;25.50;79.64
34482;BME280;20720;48.886;9.388;2023-05-21T06:57:13;97965.31;;;26.21;76.15
34482;BME280;20720;48.886;9.388;2023-05-21T06:59:38;97973.94;;;27.19;70.39
34482;BME280;20720;48.886;9.388;2023-05-21T07:02:04;97974.88;;;25.34;77.62
34482;BME280;20720;48.886;9.388;2023-05-21T07:04:30;97967.25;;;26.29;73.10
34482;BME280;20720;48.886;9.388;2023-05-21T07:06:56;97979.22;;;23.89;81.95
34482;BME280;20720;48.886;9.388;2023-05-21T07:09:21;97975.06;;;24.74;77.38
34482;BME280;20720;48.886;9.388;2023-05-21T07:11:46;97970.13;;;25.88;75.50
34482;BME280;20720;48.886;9.388;2023-05-21T07:14:11;97969.91;;;25.41;72.79
34482;BME280;20720;48.886;9.388;2023-05-21T07:16:37;97977.28;;;22.49;85.95
34482;BME280;20720;48.886;9.388;2023-05-21T07:19:03;97969.88;;;24.91;76.49
34482;BME280;20720;48.886;9.388;2023-05-21T07:21:28;97967.44;;;24.63;76.57
34482;BME280;20720;48.886;9.388;2023-05-21T07:23:53;97979.34;;;24.75;77.30
34482;BME280;20720;48.886;9.388;2023-05-21T07:26:18;97979.00;;;24.63;74.36
34482;BME280;20720;48.886;9.388;2023-05-21T07:28:44;97969.94;;;25.63;73.35
34482;BME280;20720;48.886;9.388;2023-05-21T07:31:09;97979.56;;;24.33;75.45
34482;BME280;20720;48.886;9.388;2023-05-21T07:33:36;97981.44;;;25.99;70.56
34482;BME280;20720;48.886;9.388;2023-05-21T07:36:02;97976.81;;;25.19;68.48
34482;BME280;20720;48.886;9.388;2023-05-21T07:38:27;97970.53;;;25.24;69.47
34482;BME280;20720;48.886;9.388;2023-05-21T07:40:52;97968.25;;;25.89;66.87
34482;BME280;20720;48.886;9.388;2023-05-21T07:43:18;97971.34;;;24.43;69.13
34482;BME280;20720;48.886;9.388;2023-05-21T07:45:43;97973.63;;;25.04;70.32
34482;BME280;20720;48.886;9.388;2023-05-21T07:48:08;97966.28;;;26.03;65.31
34482;BME280;20720;48.886;9.388;2023-05-21T07:50:33;97971.44;;;26.44;63.35
34482;BME280;20720;48.886;9.388;2023-05-21T07:52:59;97975.69;;;25.92;65.21
34482;BME280;20720;48.886;9.388;2023-05-21T07:55:24;97971.34;;;25.25;68.30
34482;BME280;20720;48.886;9.388;2023-05-21T07:57:49;97975.53;;;25.88;64.38
34482;BME280;20720;48.886;9.388;2023-05-21T08:00:16;97974.22;;;26.30;63.45
34482;BME280;20720;48.886;9.388;2023-05-21T08:02:43;97973.13;;;27.10;59.58
34482;BME280;20720;48.886;9.388;2023-05-21T08:05:08;97968.59;;;28.04;57.04
34482;BME280;20720;48.886;9.388;2023-05-21T08:07:34;97966.53;;;27.58;58.99
34482;BME280;20720;48.886;9.388;2023-05-21T08:10:00;97970.16;;;26.11;62.43
34482;BME280;20720;48.886;9.388;2023-05-21T08:12:25;97971.78;;;27.63;58.66
34482;BME280;20720;48.886;9.388;2023-05-21T08:14:51;97975.47;;;26.85;59.08
34482;BME280;20720;48.886;9.388;2023-05-21T08:17:16;97976.16;;;26.08;63.90
34482;BME280;20720;48.886;9.388;2023-05-21T08:19:41;97973.34;;;27.73;56.67
34482;BME280;20720;48.886;9.388;2023-05-21T08:22:06;97968.25;;;27.29;59.08
34482;BME280;20720;48.886;9.388;2023-05-21T08:24:32;97964.34;;;28.49;56.09
34482;BME280;20720;48.886;9.388;2023-05-21T08:26:57;97968.72;;;29.09;54.13
34482;BME280;20720;48.886;9.388;2023-05-21T08:29:22;97977.88;;;25.32;62.58
34482;BME280;20720;48.886;9.388;2023-05-21T08:31:47;97965.59;;;27.71;58.07
34482;BME280;20720;48.886;9.388;2023-05-21T08:34:13;97976.84;;;27.90;55.91
34482;BME280;20720;48.886;9.388;2023-05-21T08:36:38;97974.13;;;28.25;55.03
34482;BME280;20720;48.886;9.388;2023-05-21T08:39:07;97980.00;;;28.18;54.94
34482;BME280;20720;48.886;9.388;2023-05-21T08:41:34;97980.22;;;28.05;56.13
34482;BME280;20720;48.886;9.388;2023-05-21T08:44:00;97979.94;;;26.68;60.74
34482;BME280;20720;48.886;9.388;2023-05-21T08:46:33;97982.63;;;25.84;60.83
34482;BME280;20720;48.886;9.388;2023-05-21T08:49:01;97973.63;;;25.17;64.47
34482;BME280;20720;48.886;9.388;2023-05-21T08:51:27;97970.66;;;27.56;59.98
34482;BME280;20720;48.886;9.388;2023-05-21T08:53:54;97972.88;;;27.54;59.19
34482;BME280;20720;48.886;9.388;2023-05-21T08:56:19;97976.75;;;26.96;59.52
34482;BME280;20720;48.886;9.388;2023-05-21T08:58:45;97976.13;;;26.99;59.62
34482;BME280;20720;48.886;9.388;2023-05-21T09:01:11;97981.16;;;28.00;57.01
34482;BME280;20720;48.886;9.388;2023-05-21T09:03:38;97979.13;;;27.07;60.51
34482;BME280;20720;48.886;9.388;2023-05-21T09:06:05;97977.66;;;28.08;57.32
34482;BME280;20720;48.886;9.388;2023-05-21T09:08:34;97982.81;;;28.94;55.71
34482;BME280;20720;48.886;9.388;2023-05-21T09:11:00;97985.94;;;27.95;55.32
34482;BME280;20720;48.886;9.388;2023-05-21T09:13:27;97977.34;;;28.64;56.09
34482;BME280;20720;48.886;9.388;2023-05-21T09:15:55;97986.25;;;28.10;55.54
34482;BME280;20720;48.886;9.388;2023-05-21T09:18:20;97986.19;;;27.33;59.83
34482;BME280;20720;48.886;9.388;2023-05-21T09:20:46;97983.97;;;28.75;54.33
34482;BME280;20720;48.886;9.388;2023-05-21T09:23:11;97978.59;;;29.54;52.89
34482;BME280;20720;48.886;9.388;2023-05-21T09:25:44;97983.22;;;29.95;51.28
34482;BME280;20720;48.886;9.388;2023-05-21T09:28:11;97985.47;;;29.52;52.13
34482;BME280;20720;48.886;9.388;2023-05-21T09:30:36;97979.63;;;30.36;51.54
34482;BME280;20720;48.886;9.388;2023-05-21T09:33:01;97982.81;;;30.38;52.29
34482;BME280;20720;48.886;9.388;2023-05-21T09:35:27;97984.19;;;25.63;64.16
34482;BME280;20720;48.886;9.388;2023-05-21T09:37:54;97977.97;;;27.81;60.75
34482;BME280;20720;48.886;9.388;2023-05-21T09:40:22;97979.81;;;28.40;58.81
34482;BME280;20720;48.886;9.388;2023-05-21T09:42:52;97976.81;;;30.32;54.23
34482;BME280;20720;48.886;9.388;2023-05-21T09:45:19;97977.25;;;31.03;51.42
34482;BME280;20720;48.886;9.388;2023-05-21T09:47:47;97974.63;;;30.26;51.84
34482;BME280;20720;48.886;9.388;2023-05-21T09:50:17;97973.47;;;31.44;50.48
34482;BME280;20720;48.886;9.388;2023-05-21T09:52:43;97979.25;;;27.49;56.62
34482;BME280;20720;48.886;9.388;2023-05-21T09:55:10;97972.09;;;27.45;60.03
34482;BME280;20720;48.886;9.388;2023-05-21T09:57:39;97971.41;;;29.79;54.59
34482;BME280;20720;48.886;9.388;2023-05-21T10:00:06;97966.78;;;31.29;51.09
34482;BME280;20720;48.886;9.388;2023-05-21T10:02:36;97962.84;;;25.67;63.43
34482;BME280;20720;48.886;9.388;2023-05-21T10:05:07;97968.06;;;27.17;62.30
34482;BME280;20720;48.886;9.388;2023-05-21T10:07:34;97963.78;;;29.93;55.98
34482;BME280;20720;48.886;9.388;2023-05-21T10:10:02;97968.94;;;31.36;51.63
34482;BME280;20720;48.886;9.388;2023-05-21T10:12:29;97973.47;;;32.55;48.65
34482;BME280;20720;48.886;9.388;2023-05-21T10:15:07;97961.94;;;32.02;48.83
34482;BME280;20720;48.886;9.388;2023-05-21T10:17:33;97961.25;;;31.26;50.58
34482;BME280;20720;48.886;9.388;2023-05-21T10:19:59;97969.38;;;27.79;57.23
34482;BME280;20720;48.886;9.388;2023-05-21T10:22:26;97968.44;;;29.72;56.02
34482;BME280;20720;48.886;9.388;2023-05-21T10:24:53;97962.91;;;30.34;54.02
34482;BME280;20720;48.886;9.388;2023-05-21T10:27:18;97960.31;;;31.58;50.38
34482;BME280;20720;48.886;9.388;2023-05-21T10:29:44;97958.53;;;31.78;49.48
34482;BME280;20720;48.886;9.388;2023-05-21T10:32:14;97961.72;;;30.68;53.13
34482;BME280;20720;48.886;9.388;2023-05-21T10:34:42;97956.22;;;31.92;49.92
34482;BME280;20720;48.886;9.388;2023-05-21T10:37:07;97951.28;;;32.68;48.51
34482;BME280;20720;48.886;9.388;2023-05-21T10:39:34;97961.69;;;29.78;55.57
34482;BME280;20720;48.886;9.388;2023-05-21T10:50:43;97954.56;;;32.30;48.40
34482;BME280;20720;48.886;9.388;2023-05-21T10:53:19;97956.38;;;33.20;45.79
34482;BME280;20720;48.886;9.388;2023-05-21T10:56:12;97950.78;;;34.05;45.20
34482;BME280;20720;48.886;9.388;2023-05-21T10:58:58;97948.47;;;33.88;44.85
34482;BME280;20720;48.886;9.388;2023-05-21T11:01:28;97951.00;;;33.77;46.22
34482;BME280;20720;48.886;9.388;2023-05-21T11:03:59;97942.25;;;33.87;44.77
34482;BME280;20720;48.886;9.388;2023-05-21T11:06:25;97945.41;;;33.51;46.05
34482;BME280;20720;48.886;9.388;2023-05-21T11:08:51;97941.78;;;32.47;48.14
34482;BME280;20720;48.886;9.388;2023-05-21T11:11:48;97944.88;;;33.26;45.69
34482;BME280;20720;48.886;9.388;2023-05-21T11:14:26;97945.22;;;33.25;45.54
34482;BME280;20720;48.886;9.388;2023-05-21T11:16:52;97942.09;;;34.64;43.97
34482;BME280;20720;48.886;9.388;2023-05-21T11:19:18;97939.97;;;33.16;45.77
34482;BME280;20720;48.886;9.388;2023-05-21T11:21:49;97935.63;;;32.65;46.50
34482;BME280;20720;48.886;9.388;2023-05-21T11:24:18;97936.56;;;33.96;43.44
34482;BME280;20720;48.886;9.388;2023-05-21T11:29:12;97937.19;;;33.67;44.66
34482;BME280;20720;48.886;9.388;2023-05-21T11:31:44;97933.25;;;35.23;42.27
34482;BME280;20720;48.886;9.388;2023-05-21T11:36:39;97932.72;;;34.39;40.58
34482;BME280;20720;48.886;9.388;2023-05-21T11:44:16;97924.53;;;31.56;47.54
34482;BME280;20720;48.886;9.388;2023-05-21T11:46:41;97919.13;;;35.17;41.23
34482;BME280;20720;48.886;9.388;2023-05-21T11:49:08;97918.28;;;36.42;38.77
34482;BME280;20720;48.886;9.388;2023-05-21T11:51:34;97913.16;;;35.38;39.04
34482;BME280;20720;48.886;9.388;2023-05-21T11:53:59;97918.31;;;31.83;45.40
34482;BME280;20720;48.886;9.388;2023-05-21T11:56:25;97923.44;;;33.44;43.87
34482;BME280;20720;48.886;9.388;2023-05-21T11:58:53;97929.88;;;30.20;46.06
34482;BME280;20720;48.886;9.388;2023-05-21T12:01:23;97917.25;;;31.20;46.46
34482;BME280;20720;48.886;9.388;2023-05-21T12:03:48;97925.50;;;31.36;46.90
34482;BME280;20720;48.886;9.388;2023-05-21T12:06:13;97925.97;;;34.78;42.44
34482;BME280;20720;48.886;9.388;2023-05-21T12:08:41;97924.63;;;32.93;41.62
34482;BME280;20720;48.886;9.388;2023-05-21T12:11:07;97919.91;;;34.43;38.42
34482;BME280;20720;48.886;9.388;2023-05-21T12:13:32;97935.91;;;32.45;40.88
34482;BME280;20720;48.886;9.388;2023-05-21T12:15:58;97924.47;;;33.93;36.48
34482;BME280;20720;48.886;9.388;2023-05-21T12:18:23;97923.03;;;34.45;35.20
34482;BME280;20720;48.886;9.388;2023-05-21T12:20:52;97923.22;;;36.26;33.30
34482;BME280;20720;48.886;9.388;2023-05-21T12:23:24;97924.19;;;35.15;34.27
34482;BME280;20720;48.886;9.388;2023-05-21T12:25:50;97925.22;;;34.81;35.78
34482;BME280;20720;48.886;9.388;2023-05-21T12:28:16;97929.88;;;32.86;37.88
34482;BME280;20720;48.886;9.388;2023-05-21T12:30:41;97934.47;;;34.73;36.35
34482;BME280;20720;48.886;9.388;2023-05-21T12:33:07;97929.66;;;32.60;36.11
34482;BME280;20720;48.886;9.388;2023-05-21T12:35:32;97921.56;;;35.22;32.76
34482;BME280;20720;48.886;9.388;2023-05-21T12:38:00;97927.00;;;36.15;31.87
34482;BME280;20720;48.886;9.388;2023-05-21T12:40:36;97921.41;;;35.71;31.28
34482;BME280;20720;48.886;9.388;2023-05-21T12:43:02;97919.09;;;35.14;33.46
34482;BME280;20720;48.886;9.388;2023-05-21T12:45:30;97919.91;;;35.44;32.39
34482;BME280;20720;48.886;9.388;2023-05-21T12:47:55;97923.56;;;34.50;33.44
34482;BME280;20720;48.886;9.388;2023-05-21T12:50:20;97918.97;;;34.80;33.75
34482;BME280;20720;48.886;9.388;2023-05-21T12:52:46;97928.06;;;32.74;36.59
34482;BME280;20720;48.886;9.388;2023-05-21T12:55:12;97922.59;;;33.05;37.37
34482;BME280;20720;48.886;9.388;2023-05-21T12:57:38;97921.03;;;33.04;37.79
34482;BME280;20720;48.886;9.388;2023-05-21T13:00:07;97922.56;;;35.40;35.06
34482;BME280;20720;48.886;9.388;2023-05-21T13:02:38;97918.50;;;34.75;34.98
34482;BME280;20720;48.886;9.388;2023-05-21T13:05:06;97919.47;;;35.12;34.94
34482;BME280;20720;48.886;9.388;2023-05-21T13:07:33;97923.72;;;34.38;35.13
34482;BME280;20720;48.886;9.388;2023-05-21T13:10:00;97924.94;;;36.05;33.08